KAFN

Jaffrey-Silver Ranch Airport

Jaffrey, New Hampshire, USA
METAR KAFN 191052Z AUTO 00000KT 1 3/4SM BR SCT002 OVC016 16/15 A2990 RMK AO2 VIS 1 1/4V2 1/2 SLP126 T01560150
Observed Flight Rules
Sep-19 @ 10:52 UTC (12 minutes ago) Instrument Flight Rules
Visibility Clouds Conditions
1 3/4 miles
  • Scattered at 200' AGL
  • Overcast at 1,600' AGL
  • Mist
Temperatures Readings
Current 16°C / 61°F
Dewpoint 15°C / 59°F
Humidity 94%
Altimeter 29.9" Hg
Pressure 1012.6 hPa
Elevation 313
METAR KAFN 191052Z AUTO 00000KT 1 3/4SM BR SCT002 OVC016 16/15 A2990 RMK AO2 VIS 1 1/4V2 1/2 SLP126 T01560150
Observed Flight Rules
Sep-19 @ 10:52 UTC
(12 minutes ago)
IFR
Clouds
  • Scattered at 200' AGL
  • Overcast at 1,600' AGL
Conditions
  • Mist
Temperature Dewpoint
16°C / 61°F 15°C / 59°F
Humidity Altimeter Pressure
94% 29.9" Hg 1012.6 hPa